createdAt,value
2018-09-21T00:04:43.338Z,13.07
2018-09-21T00:09:46.550Z,13.15
2018-09-21T00:14:49.782Z,13.08
2018-09-21T00:19:53.136Z,13.02
2018-09-21T00:24:56.412Z,12.94
2018-09-21T00:29:59.970Z,12.85
2018-09-21T00:35:03.217Z,12.76
2018-09-21T00:40:06.439Z,12.70
2018-09-21T00:45:09.740Z,12.65
2018-09-21T00:50:12.908Z,12.57
2018-09-21T00:55:16.112Z,12.52
2018-09-21T01:00:19.355Z,12.50
2018-09-21T01:05:22.846Z,12.59
2018-09-21T01:10:26.042Z,12.50
2018-09-21T01:15:29.323Z,12.39
2018-09-21T01:20:32.987Z,12.31
2018-09-21T01:25:36.869Z,12.32
2018-09-21T01:30:41.541Z,12.28
2018-09-21T01:35:49.888Z,12.27
2018-09-21T01:40:53.380Z,12.22
2018-09-21T01:45:56.590Z,12.29
2018-09-21T01:50:59.745Z,12.40
2018-09-21T01:56:02.984Z,12.37
2018-09-21T02:01:06.335Z,12.50
2018-09-21T02:06:09.496Z,12.71
2018-09-21T02:11:12.701Z,12.95
2018-09-21T02:16:16.479Z,13.07
2018-09-21T02:21:19.732Z,13.07
2018-09-21T02:26:23.158Z,13.14
2018-09-21T02:31:26.387Z,13.15
2018-09-21T02:36:29.560Z,13.08
2018-09-21T02:41:33.637Z,13.16
2018-09-21T02:46:36.747Z,13.44
2018-09-21T02:51:39.930Z,13.66
2018-09-21T02:56:43.466Z,13.85
2018-09-21T03:01:46.794Z,13.81
2018-09-21T03:06:50.177Z,13.97
2018-09-21T03:11:53.498Z,14.10
2018-09-21T03:16:56.772Z,14.24
2018-09-21T03:22:00.051Z,14.44
2018-09-21T03:27:03.270Z,14.72
2018-09-21T03:32:07.730Z,14.84
2018-09-21T03:37:10.937Z,14.91
2018-09-21T03:42:14.105Z,14.90
2018-09-21T03:47:17.254Z,14.95
2018-09-21T03:52:20.541Z,15.09
2018-09-21T03:57:23.891Z,15.22
2018-09-21T04:02:27.125Z,15.16
2018-09-21T04:07:30.346Z,15.10
2018-09-21T04:12:35.702Z,15.09
2018-09-21T04:17:39.120Z,15.15
2018-09-21T04:22:46.343Z,15.33
2018-09-21T04:27:50.507Z,15.65
2018-09-21T04:32:53.692Z,15.56
2018-09-21T04:37:58.761Z,15.59
2018-09-21T04:43:02.118Z,15.50
2018-09-21T04:48:05.647Z,15.50
2018-09-21T04:53:08.895Z,15.31
2018-09-21T04:58:14.856Z,15.17
2018-09-21T05:03:18.900Z,15.20
2018-09-21T05:08:22.127Z,15.43
2018-09-21T05:13:25.335Z,16.00
2018-09-21T05:18:28.590Z,16.56
2018-09-21T05:23:31.849Z,17.10
2018-09-21T05:28:34.999Z,17.67
2018-09-21T05:33:38.213Z,18.29
2018-09-21T05:38:41.406Z,18.78
2018-09-21T05:43:44.521Z,19.23
2018-09-21T05:48:47.786Z,19.53
2018-09-21T05:53:51.867Z,19.93
2018-09-21T05:58:55.299Z,20.25
2018-09-21T06:03:58.522Z,20.52
2018-09-21T06:09:01.864Z,20.70
2018-09-21T06:14:05.506Z,20.99
2018-09-21T06:19:08.613Z,21.34
2018-09-21T06:24:11.940Z,21.62
2018-09-21T06:29:15.119Z,21.91
2018-09-21T06:34:18.405Z,22.18
2018-09-21T06:39:22.251Z,22.58
2018-09-21T06:44:25.919Z,22.72
2018-09-21T06:49:30.128Z,22.78
2018-09-21T06:54:33.336Z,23.01
2018-09-21T06:59:36.752Z,23.27
2018-09-21T07:04:40.174Z,23.33
2018-09-21T07:09:43.381Z,23.29
2018-09-21T07:14:46.782Z,23.20
2018-09-21T07:19:50.099Z,22.80
2018-09-21T07:24:54.415Z,22.61
2018-09-21T07:29:57.726Z,22.30
2018-09-21T07:35:00.945Z,22.21
2018-09-21T07:40:05.157Z,22.45
2018-09-21T07:45:09.683Z,22.83
2018-09-21T07:50:13.069Z,23.04
2018-09-21T07:55:16.265Z,23.35
2018-09-21T08:00:19.457Z,23.43
2018-09-21T08:05:22.727Z,23.50
2018-09-21T08:10:25.888Z,23.77
2018-09-21T08:15:29.227Z,23.94
2018-09-21T08:20:32.382Z,24.01
2018-09-21T08:25:35.696Z,24.05
2018-09-21T08:30:39.809Z,24.09
2018-09-21T08:35:43.152Z,24.36
2018-09-21T08:40:46.408Z,24.71
2018-09-21T08:45:49.753Z,25.05
2018-09-21T08:50:52.944Z,25.05
2018-09-21T08:55:56.238Z,25.21
2018-09-21T09:00:59.431Z,25.56
2018-09-21T09:06:02.571Z,25.83
2018-09-21T09:11:05.997Z,25.90
2018-09-21T09:16:10.498Z,26.32
2018-09-21T09:21:13.917Z,26.79
2018-09-21T09:26:17.085Z,27.21
2018-09-21T09:31:20.263Z,27.55
2018-09-21T09:36:23.448Z,29.20
2018-09-21T09:41:26.646Z,30.06
2018-09-21T09:46:29.838Z,30.12
2018-09-21T09:51:33.061Z,30.48
2018-09-21T09:56:36.526Z,30.17
2018-09-21T10:01:40.398Z,30.05
2018-09-21T10:06:43.833Z,30.94
2018-09-21T10:11:47.623Z,30.88
2018-09-21T10:16:50.845Z,31.26
2018-09-21T10:21:54.100Z,29.98
2018-09-21T10:26:57.723Z,30.06
2018-09-21T10:32:00.875Z,30.07
2018-09-21T10:37:04.189Z,30.95
2018-09-21T10:42:07.752Z,30.37
2018-09-21T10:47:11.104Z,30.81
2018-09-21T10:52:14.316Z,29.71
2018-09-21T10:57:17.877Z,30.39
2018-09-21T11:02:21.079Z,30.17
2018-09-21T11:07:24.495Z,31.35
2018-09-21T11:12:27.770Z,32.08
2018-09-21T11:17:30.886Z,31.79
2018-09-21T11:22:34.067Z,32.14
2018-09-21T11:27:37.320Z,32.13
2018-09-21T11:32:40.515Z,32.25
2018-09-21T11:37:46.683Z,31.46
2018-09-21T11:42:49.904Z,31.57
2018-09-21T11:47:53.315Z,31.53
2018-09-21T11:52:56.484Z,31.33
2018-09-21T11:57:59.648Z,30.98
2018-09-21T12:03:03.809Z,30.52
2018-09-21T12:08:07.024Z,30.34
2018-09-21T12:13:10.299Z,30.50
2018-09-21T12:18:13.501Z,30.39
2018-09-21T12:23:16.660Z,30.63
2018-09-21T12:28:19.849Z,30.24
2018-09-21T12:33:23.120Z,30.16
2018-09-21T12:38:26.415Z,30.14
2018-09-21T12:43:35.102Z,29.70
2018-09-21T12:48:38.904Z,29.34
2018-09-21T12:53:42.208Z,29.32
2018-09-21T12:58:45.461Z,28.85
2018-09-21T13:03:48.633Z,28.51
2018-09-21T13:08:51.838Z,28.38
2018-09-21T13:13:55.074Z,28.12
2018-09-21T13:18:58.208Z,28.12
2018-09-21T13:24:02.233Z,27.87
2018-09-21T13:29:05.522Z,27.71
2018-09-21T13:34:08.973Z,27.55
2018-09-21T13:39:12.194Z,27.50
2018-09-21T13:44:15.340Z,27.36
2018-09-21T13:49:18.769Z,27.30
2018-09-21T13:54:21.923Z,27.41
2018-09-21T13:59:25.177Z,27.45
2018-09-21T14:04:29.028Z,27.27
2018-09-21T14:09:32.259Z,27.15
2018-09-21T14:20:04.908Z,27.06
2018-09-21T14:25:08.349Z,26.99
2018-09-21T14:30:12.105Z,27.04
2018-09-21T14:35:17.782Z,23.70
2018-09-21T14:40:22.032Z,21.33
2018-09-21T14:45:25.333Z,19.90
2018-09-21T14:50:28.959Z,19.08
2018-09-21T14:55:32.372Z,18.15
2018-09-21T15:00:35.945Z,17.23
2018-09-21T15:05:40.170Z,16.55
2018-09-21T15:10:43.410Z,16.37
2018-09-21T15:15:48.590Z,16.13
2018-09-21T15:20:53.893Z,15.70
2018-09-21T15:25:57.305Z,15.79
2018-09-21T15:31:01.005Z,15.66
2018-09-21T15:36:04.450Z,15.49
2018-09-21T15:41:09.215Z,15.28
2018-09-21T15:46:12.627Z,15.20
2018-09-21T15:51:15.849Z,15.00
2018-09-21T15:56:19.091Z,14.51
2018-09-21T16:01:22.818Z,14.04
2018-09-21T16:06:29.837Z,13.88
2018-09-21T16:11:33.281Z,13.71
2018-09-21T16:16:36.672Z,13.76
2018-09-21T16:21:42.140Z,13.66
2018-09-21T16:26:45.420Z,13.54
2018-09-21T16:31:48.749Z,13.51
2018-09-21T16:36:52.018Z,13.56
2018-09-21T16:41:55.541Z,13.55
2018-09-21T16:46:58.997Z,13.60
2018-09-21T16:52:02.299Z,13.61
2018-09-21T16:57:06.183Z,13.65
2018-09-21T17:02:09.958Z,13.58
2018-09-21T17:07:13.397Z,13.56
2018-09-21T17:12:16.787Z,13.65
2018-09-21T17:17:20.007Z,13.71
2018-09-21T17:22:23.234Z,13.71
2018-09-21T17:27:26.516Z,13.68
2018-09-21T17:32:29.676Z,13.71
2018-09-21T17:37:34.353Z,13.73
2018-09-21T17:42:38.166Z,13.71
2018-09-21T17:47:41.332Z,13.79
2018-09-21T17:52:50.036Z,13.73
2018-09-21T17:57:56.292Z,13.77
2018-09-21T18:03:00.819Z,13.60
2018-09-21T18:08:04.271Z,13.71
2018-09-21T18:18:41.093Z,13.77
2018-09-21T18:23:45.326Z,13.78
2018-09-21T18:28:49.630Z,13.81
2018-09-21T18:33:52.911Z,13.68
2018-09-21T18:38:56.064Z,13.71
2018-09-21T18:43:59.505Z,13.69
2018-09-21T18:49:02.820Z,13.66
2018-09-21T18:54:06.890Z,13.66
2018-09-21T18:59:10.605Z,13.62
2018-09-21T19:04:15.529Z,13.51
2018-09-21T19:09:19.542Z,13.44
2018-09-21T19:14:23.714Z,13.44
2018-09-21T19:19:28.563Z,13.44
2018-09-21T19:24:32.653Z,13.36
2018-09-21T19:30:05.465Z,13.23
2018-09-21T19:35:17.254Z,13.14
2018-09-21T19:40:21.260Z,13.16
2018-09-21T19:45:25.946Z,13.15
2018-09-21T19:50:30.190Z,13.15
2018-09-21T19:55:34.454Z,13.14
2018-09-21T20:00:40.127Z,13.03
2018-09-21T20:05:43.468Z,12.99
2018-09-21T20:11:20.530Z,13.01
2018-09-21T20:16:23.883Z,12.86
2018-09-21T20:21:27.192Z,12.71
2018-09-21T20:26:31.215Z,12.59
2018-09-21T20:31:34.739Z,12.62
2018-09-21T20:36:40.890Z,12.53
2018-09-21T20:41:44.115Z,12.38
2018-09-21T20:46:47.375Z,12.32
2018-09-21T20:51:50.597Z,12.23
2018-09-21T20:56:53.754Z,12.14
2018-09-21T21:01:56.921Z,11.92
2018-09-21T21:07:00.136Z,11.86
2018-09-21T21:12:03.344Z,11.79
2018-09-21T21:17:06.524Z,11.72
2018-09-21T21:22:09.706Z,11.65
2018-09-21T21:27:14.802Z,11.64
2018-09-21T21:32:20.697Z,11.51
2018-09-21T21:37:26.310Z,11.39
2018-09-21T21:42:33.350Z,11.35
2018-09-21T21:47:39.576Z,11.27
2018-09-21T21:52:43.700Z,11.26
2018-09-21T21:57:46.854Z,11.19
2018-09-21T22:02:50.204Z,11.05
2018-09-21T22:07:53.443Z,10.96
2018-09-21T22:12:56.588Z,10.87
2018-09-21T22:17:59.775Z,10.80
2018-09-21T22:23:03.132Z,10.72
2018-09-21T22:28:06.322Z,10.63
2018-09-21T22:33:09.518Z,10.45
2018-09-21T22:38:12.781Z,10.31
2018-09-21T22:43:16.177Z,10.22
2018-09-21T22:48:19.397Z,10.26
2018-09-21T22:53:22.769Z,10.21
2018-09-21T22:58:25.918Z,10.28
2018-09-21T23:03:29.121Z,10.31
2018-09-21T23:08:32.314Z,10.26
2018-09-21T23:13:35.614Z,10.28
2018-09-21T23:18:40.391Z,10.21
2018-09-21T23:23:44.287Z,10.16
2018-09-21T23:28:47.463Z,10.15
2018-09-21T23:33:50.721Z,10.13
2018-09-21T23:38:53.930Z,10.22
2018-09-21T23:43:57.141Z,10.45
2018-09-21T23:49:00.294Z,10.47
2018-09-21T23:54:04.065Z,10.31
2018-09-21T23:59:07.244Z,10.19
